Terminal Aerodrome Forecast
Issued by NWS

Home | Current Version | Previous Version | Text Only | Print | Product List | Glossary On
Versions: 1 2 3 4 5 6 7 8 9 10 11 12 13 14 15
000
FTUS41 KPBZ 312320
TAFMGW
TAF
KMGW 312320Z 0100/0124 00000KT P6SM -SHRA OVC070
     FM010600 35003KT P6SM OVC025
     FM011000 34004KT 3SM BR BKN015
     FM011300 34005KT P6SM SCT015
     FM011500 34005KT P6SM SCT035=

USA.gov is the U.S. government's official web portal to all federal, state and local government web resources and services.